createdAt,value
2017-06-13T00:00:13.871Z,91.85
2017-06-13T00:01:13.521Z,92.05
2017-06-13T00:02:13.503Z,92.29
2017-06-13T00:03:13.795Z,92.57
2017-06-13T00:04:13.468Z,91.9
2017-06-13T00:05:13.768Z,91.81
2017-06-13T00:06:13.753Z,92.57
2017-06-13T00:07:13.820Z,92.67
2017-06-13T00:08:13.417Z,92.1
2017-06-13T00:09:13.387Z,92.1
2017-06-13T00:10:13.678Z,92.1
2017-06-13T00:11:13.359Z,92.29
2017-06-13T00:12:13.652Z,92.14
2017-06-13T00:13:13.688Z,92.38
2017-06-13T00:14:13.309Z,92.48
2017-06-13T00:15:13.293Z,92.29
2017-06-13T00:16:13.591Z,92.38
2017-06-13T00:17:13.270Z,92.67
2017-06-13T00:18:13.246Z,91.9
2017-06-13T00:19:13.239Z,92.29
2017-06-13T00:20:13.522Z,92.62
2017-06-13T00:21:13.559Z,92.67
2017-06-13T00:22:13.493Z,92.62
2017-06-13T00:23:13.169Z,92.72
2017-06-13T00:24:13.470Z,92.57
2017-06-13T00:25:13.459Z,92.19
2017-06-13T00:26:13.421Z,93.05
2017-06-13T00:27:13.422Z,92.67
2017-06-13T00:28:13.082Z,92.29
2017-06-13T00:29:13.074Z,92.57
2017-06-13T00:30:13.367Z,91.81
2017-06-13T00:31:13.360Z,91.95
2017-06-13T00:32:13.332Z,92.1
2017-06-13T00:33:13.334Z,92.52
2017-06-13T00:34:12.998Z,92.72
2017-06-13T00:35:13.281Z,92.62
2017-06-13T00:36:13.269Z,92.43
2017-06-13T00:37:13.277Z,92.05
2017-06-13T00:38:12.934Z,92.52
2017-06-13T00:39:13.220Z,92.72
2017-06-13T00:40:13.203Z,92.72
2017-06-13T00:41:13.192Z,92.72
2017-06-13T00:42:12.871Z,92.72
2017-06-13T00:43:13.165Z,92.29
2017-06-13T00:44:13.141Z,92.86
2017-06-13T00:45:13.140Z,92.81
2017-06-13T00:46:13.113Z,92.48
2017-06-13T00:47:13.106Z,92.77
2017-06-13T00:48:12.784Z,92.52
2017-06-13T00:49:13.064Z,93.44
2017-06-13T00:50:13.054Z,93.25
2017-06-13T00:51:13.028Z,93.82
2017-06-13T00:52:13.017Z,94.01
2017-06-13T00:53:13.002Z,94.01
2017-06-13T00:54:12.984Z,94.21
2017-06-13T00:55:12.981Z,93.82
2017-06-13T00:56:12.951Z,93.73
2017-06-13T00:57:12.684Z,93.73
2017-06-13T00:58:12.924Z,93.82
2017-06-13T00:59:12.914Z,93.82
2017-06-13T01:00:12.890Z,93.44
2017-06-13T01:01:12.870Z,93.54
2017-06-13T01:02:12.861Z,93.34
2017-06-13T01:03:12.837Z,93.44
2017-06-13T01:04:12.829Z,93.34
2017-06-13T01:05:12.501Z,93.49
2017-06-13T01:06:12.805Z,93.54
2017-06-13T01:07:12.784Z,94.01
2017-06-13T01:08:12.772Z,93.82
2017-06-13T01:09:12.442Z,94.21
2017-06-13T01:10:12.538Z,93.92
2017-06-13T01:11:12.710Z,94.11
2017-06-13T01:12:12.702Z,93.92
2017-06-13T01:13:12.387Z,94.01
2017-06-13T01:14:12.360Z,93.92
2017-06-13T01:15:12.650Z,93.92
2017-06-13T01:16:12.338Z,94.69
2017-06-13T01:17:12.632Z,94.59
2017-06-13T01:18:12.597Z,94.49
2017-06-13T01:19:12.291Z,94.01
2017-06-13T01:20:12.583Z,93.82
2017-06-13T01:21:12.255Z,93.92
2017-06-13T01:22:12.540Z,94.49
2017-06-13T01:23:12.531Z,93.92
2017-06-13T01:24:12.511Z,94.49
2017-06-13T01:25:12.188Z,94.4
2017-06-13T01:26:12.172Z,94.59
2017-06-13T01:27:12.470Z,94.59
2017-06-13T01:28:12.459Z,94.49
2017-06-13T01:29:12.437Z,94.4
2017-06-13T01:30:12.420Z,94.31
2017-06-13T01:31:12.401Z,94.4
2017-06-13T01:32:12.390Z,94.69
2017-06-13T01:33:12.056Z,94.11
2017-06-13T01:34:12.050Z,94.21
2017-06-13T01:35:12.037Z,94.11
2017-06-13T01:36:12.319Z,94.21
2017-06-13T01:37:12.300Z,94.4
2017-06-13T01:38:12.281Z,94.98
2017-06-13T01:39:12.271Z,95.17
2017-06-13T01:40:11.950Z,95.26
2017-06-13T01:41:12.240Z,95.03
2017-06-13T01:42:11.916Z,95.03
2017-06-13T01:43:12.202Z,95.21
2017-06-13T01:44:12.195Z,95.31
2017-06-13T01:45:11.932Z,95.03
2017-06-13T01:46:12.160Z,95.17
2017-06-13T01:47:12.139Z,94.74
2017-06-13T01:48:12.130Z,95.26
2017-06-13T01:49:12.121Z,95.21
2017-06-13T01:50:12.096Z,95.45
2017-06-13T01:51:11.777Z,95.41
2017-06-13T01:52:12.069Z,95.12
2017-06-13T01:53:12.044Z,94.83
2017-06-13T01:54:12.029Z,95.07
2017-06-13T01:55:11.762Z,94.98
2017-06-13T01:56:12.006Z,94.88
2017-06-13T01:57:12.131Z,95.26
2017-06-13T01:58:11.661Z,95.45
2017-06-13T01:59:11.960Z,95.5
2017-06-13T02:00:11.941Z,95.21
2017-06-13T02:01:11.920Z,95.31
2017-06-13T02:02:11.597Z,95.21
2017-06-13T02:03:11.577Z,94.98
2017-06-13T02:04:11.893Z,94.69
2017-06-13T02:05:11.850Z,94.78
2017-06-13T02:06:11.528Z,94.69
2017-06-13T02:07:11.832Z,95.17
2017-06-13T02:08:11.499Z,95.36
2017-06-13T02:09:11.798Z,95.41
2017-06-13T02:10:11.470Z,95.31
2017-06-13T02:11:11.457Z,95.6
2017-06-13T02:12:11.435Z,95.41
2017-06-13T02:13:11.782Z,95.55
2017-06-13T02:14:11.719Z,95.7
2017-06-13T02:15:11.701Z,95.7
2017-06-13T02:16:11.692Z,95.98
2017-06-13T02:17:11.361Z,95.89
2017-06-13T02:18:11.740Z,95.89
2017-06-13T02:19:11.642Z,95.89
2017-06-13T02:20:11.692Z,95.79
2017-06-13T02:21:11.289Z,95.89
2017-06-13T02:22:11.581Z,95.7
2017-06-13T02:23:11.566Z,95.7
2017-06-13T02:24:11.550Z,95.79
2017-06-13T02:25:11.529Z,95.89
2017-06-13T02:26:11.548Z,95.98
2017-06-13T02:27:11.503Z,95.98
2017-06-13T02:28:11.186Z,95.98
2017-06-13T02:29:11.165Z,95.98
2017-06-13T02:30:11.140Z,96.27
2017-06-13T02:31:11.451Z,96.37
2017-06-13T02:32:11.415Z,96.18
2017-06-13T02:33:11.109Z,96.47
2017-06-13T02:34:11.390Z,96.27
2017-06-13T02:35:11.371Z,97.04
2017-06-13T02:36:11.054Z,96.66
2017-06-13T02:37:11.036Z,96.85
2017-06-13T02:38:11.319Z,96.47
2017-06-13T02:39:11.006Z,96.47
2017-06-13T02:40:11.292Z,96.18
2017-06-13T02:41:10.963Z,96.66
2017-06-13T02:42:10.961Z,96.85
2017-06-13T02:43:11.239Z,96.94
2017-06-13T02:44:11.242Z,96.85
2017-06-13T02:45:10.902Z,96.66
2017-06-13T02:46:11.201Z,96.85
2017-06-13T02:47:11.176Z,96.94
2017-06-13T02:48:11.162Z,96.85
2017-06-13T02:49:10.847Z,96.66
2017-06-13T02:50:11.123Z,97.14
2017-06-13T02:51:11.114Z,96.75
2017-06-13T02:52:11.105Z,96.94
2017-06-13T02:53:11.111Z,97.14
2017-06-13T02:54:11.065Z,96.94
2017-06-13T02:55:10.762Z,97.24
2017-06-13T02:56:10.731Z,97.33
2017-06-13T02:57:11.021Z,97.61
2017-06-13T02:58:11.011Z,97.24
2017-06-13T02:59:10.680Z,97.61
2017-06-13T03:00:10.972Z,97.42
2017-06-13T03:01:10.951Z,97.04
2017-06-13T03:02:10.959Z,97.61
2017-06-13T03:03:10.610Z,97.61
2017-06-13T03:04:10.907Z,97.71
2017-06-13T03:05:10.589Z,97.33
2017-06-13T03:06:10.560Z,97.71
2017-06-13T03:07:10.856Z,97.61
2017-06-13T03:08:10.550Z,97.42
2017-06-13T03:09:10.520Z,97.42
2017-06-13T03:10:10.499Z,97.42
2017-06-13T03:11:10.802Z,97.24
2017-06-13T03:12:10.465Z,97.71
2017-06-13T03:13:10.451Z,97.81
2017-06-13T03:14:10.468Z,97.42
2017-06-13T03:15:10.731Z,97.33
2017-06-13T03:16:10.714Z,97.52
2017-06-13T03:17:10.686Z,97.52
2017-06-13T03:18:10.372Z,97.33
2017-06-13T03:19:10.665Z,97.81
2017-06-13T03:20:10.639Z,97.52
2017-06-13T03:21:10.628Z,97.52
2017-06-13T03:22:10.616Z,98.38
2017-06-13T03:23:10.612Z,98.19
2017-06-13T03:24:10.579Z,97.52
2017-06-13T03:25:10.258Z,97.91
2017-06-13T03:26:10.547Z,97.91
2017-06-13T03:27:10.224Z,97.52
2017-06-13T03:28:10.226Z,98.19
2017-06-13T03:29:10.499Z,98
2017-06-13T03:30:10.485Z,98
2017-06-13T03:31:10.460Z,98.38
2017-06-13T03:32:10.460Z,98.29
2017-06-13T03:33:10.478Z,98.38
2017-06-13T03:34:10.422Z,98.19
2017-06-13T03:35:10.087Z,97.71
2017-06-13T03:36:10.400Z,97.52
2017-06-13T03:37:10.371Z,98.19
2017-06-13T03:38:10.350Z,98
2017-06-13T03:39:10.331Z,98.19
2017-06-13T03:40:10.324Z,97.91
2017-06-13T03:41:10.316Z,98
2017-06-13T03:42:09.979Z,98.48
2017-06-13T03:43:09.969Z,98.38
2017-06-13T03:44:10.260Z,98.67
2017-06-13T03:45:09.933Z,99.44
2017-06-13T03:46:10.218Z,99.29
2017-06-13T03:47:10.209Z,99.25
2017-06-13T03:48:10.184Z,99.34
2017-06-13T03:49:09.871Z,99.34
2017-06-13T03:50:10.159Z,99.44
2017-06-13T03:51:09.831Z,99.25
2017-06-13T03:52:10.130Z,99.15
2017-06-13T03:53:09.800Z,98.96
2017-06-13T03:54:09.801Z,99.25
2017-06-13T03:55:09.772Z,99.54
2017-06-13T03:56:10.072Z,98.58
2017-06-13T03:57:10.040Z,98.77
2017-06-13T03:58:10.029Z,98.77
2017-06-13T03:59:10.010Z,98.96
2017-06-13T04:00:09.750Z,98.86
2017-06-13T04:01:09.683Z,98.77
2017-06-13T04:02:09.969Z,98.96
2017-06-13T04:03:09.953Z,99.44
2017-06-13T04:04:09.935Z,99.25
2017-06-13T04:05:09.615Z,99.73
2017-06-13T04:06:09.912Z,99.34
2017-06-13T04:07:09.891Z,99.34
2017-06-13T04:08:09.872Z,99.54
2017-06-13T04:09:09.544Z,99.44
2017-06-13T04:10:09.830Z,99.05
2017-06-13T04:11:09.823Z,99.34
2017-06-13T04:12:09.821Z,99.92
2017-06-13T04:13:09.791Z,99.63
2017-06-13T04:14:09.468Z,99.82
2017-06-13T04:15:09.762Z,99.63
2017-06-13T04:16:09.737Z,99.73
2017-06-13T04:17:09.731Z,99.99
2017-06-13T04:18:09.705Z,99.25
2017-06-13T04:19:09.390Z,99.25
2017-06-13T04:20:09.676Z,99.34
2017-06-13T04:21:09.656Z,99.44
2017-06-13T04:22:09.640Z,99.99
2017-06-13T04:23:09.632Z,99.82
2017-06-13T04:24:09.308Z,99.82
2017-06-13T04:25:09.611Z,99.54
2017-06-13T04:26:09.590Z,99.44
2017-06-13T04:27:09.570Z,99.05
2017-06-13T04:28:09.551Z,99.4
2017-06-13T04:29:09.221Z,99.15
2017-06-13T04:30:09.536Z,99.99
2017-06-13T04:31:09.500Z,99.99
2017-06-13T04:32:09.494Z,99.73
2017-06-13T04:33:09.523Z,99.73
2017-06-13T04:34:09.161Z,99.92
2017-06-13T04:35:09.432Z,99.82
2017-06-13T04:36:09.111Z,99.99
2017-06-13T04:37:09.410Z,99.92
2017-06-13T04:38:09.389Z,99.99
2017-06-13T04:39:09.070Z,99.99
2017-06-13T04:40:09.361Z,99.99
2017-06-13T04:41:09.041Z,99.99
2017-06-13T04:42:09.338Z,99.99
2017-06-13T04:43:09.359Z,99.99
2017-06-13T04:44:09.301Z,99.99
2017-06-13T04:45:09.280Z,99.99
2017-06-13T04:46:09.264Z,99.99
2017-06-13T04:47:09.245Z,99.99
2017-06-13T04:48:09.232Z,99.99
2017-06-13T04:49:09.212Z,99.99
2017-06-13T04:50:08.913Z,99.99
2017-06-13T04:51:09.181Z,99.99
2017-06-13T04:52:09.162Z,99.99
2017-06-13T04:53:09.149Z,99.99
2017-06-13T04:54:08.829Z,99.99
2017-06-13T04:55:09.123Z,99.99
2017-06-13T04:56:09.106Z,99.99
2017-06-13T04:57:09.087Z,99.99
2017-06-13T04:58:09.072Z,99.99
2017-06-13T04:59:09.059Z,99.99
2017-06-13T05:00:08.732Z,99.99
2017-06-13T05:01:09.024Z,99.99
2017-06-13T05:02:09.012Z,99.99
2017-06-13T05:03:08.699Z,99.99
2017-06-13T05:04:08.970Z,99.99
2017-06-13T05:05:08.657Z,99.99
2017-06-13T05:06:08.982Z,99.99
2017-06-13T05:07:08.920Z,99.99
2017-06-13T05:08:08.656Z,99.99
2017-06-13T05:09:08.898Z,99.99
2017-06-13T05:10:08.933Z,99.99
2017-06-13T05:11:08.868Z,99.99
2017-06-13T05:12:08.579Z,99.99
2017-06-13T05:13:08.524Z,99.99
2017-06-13T05:14:08.849Z,99.99
2017-06-13T05:15:08.494Z,99.99
2017-06-13T05:16:08.505Z,99.99
2017-06-13T05:17:08.775Z,99.99
2017-06-13T05:18:08.805Z,99.99
2017-06-13T05:19:08.425Z,99.99
2017-06-13T05:20:08.449Z,99.99
2017-06-13T05:21:08.725Z,99.99
2017-06-13T05:22:08.743Z,99.99
2017-06-13T05:23:08.670Z,99.99
2017-06-13T05:24:08.665Z,99.99
2017-06-13T05:25:08.644Z,99.99
2017-06-13T05:26:08.622Z,99.99
2017-06-13T05:27:08.608Z,99.99
2017-06-13T05:28:08.283Z,99.99
2017-06-13T05:29:08.634Z,99.99
2017-06-13T05:30:08.559Z,99.99
2017-06-13T05:31:08.567Z,99.99
2017-06-13T05:32:08.233Z,99.99
2017-06-13T05:33:08.513Z,99.99
2017-06-13T05:34:08.193Z,99.99
2017-06-13T05:35:08.186Z,99.99
2017-06-13T05:36:08.176Z,99.99
2017-06-13T05:37:08.454Z,99.99
2017-06-13T05:38:08.150Z,99.99
2017-06-13T05:39:08.443Z,99.99
2017-06-13T05:40:08.405Z,99.99
2017-06-13T05:41:08.398Z,99.99
2017-06-13T05:42:08.070Z,99.99
2017-06-13T05:43:08.358Z,99.99
2017-06-13T05:44:08.037Z,99.99
2017-06-13T05:45:08.398Z,99.99
2017-06-13T05:46:08.313Z,99.99
2017-06-13T05:47:07.998Z,99.99
2017-06-13T05:48:08.293Z,99.99
2017-06-13T05:49:08.290Z,99.99
2017-06-13T05:50:08.256Z,99.99
2017-06-13T05:51:08.230Z,99.99
2017-06-13T05:52:08.210Z,99.99
2017-06-13T05:53:08.215Z,99.99
2017-06-13T05:54:08.183Z,99.99
2017-06-13T05:55:07.868Z,99.99
2017-06-13T05:56:08.169Z,99.83
2017-06-13T05:57:08.138Z,99.99
2017-06-13T05:58:07.822Z,99.99
2017-06-13T05:59:08.114Z,99.92
2017-06-13T06:00:07.800Z,99.99
2017-06-13T06:01:07.776Z,99.06
2017-06-13T06:02:08.066Z,99.35
2017-06-13T06:03:07.743Z,99.44
2017-06-13T06:04:08.029Z,99.99
2017-06-13T06:05:07.720Z,99.73
2017-06-13T06:06:08.008Z,98.96
2017-06-13T06:07:07.694Z,99.35
2017-06-13T06:08:07.972Z,98.77
2017-06-13T06:09:07.953Z,98.58
2017-06-13T06:10:07.630Z,98.39
2017-06-13T06:11:07.920Z,98.48
2017-06-13T06:12:07.916Z,98.53
2017-06-13T06:13:07.902Z,98.63
2017-06-13T06:14:07.577Z,98.72
2017-06-13T06:15:07.869Z,98.19
2017-06-13T06:16:07.537Z,98.58
2017-06-13T06:17:07.832Z,98.29
2017-06-13T06:18:07.819Z,98.24
2017-06-13T06:19:07.497Z,98.39
2017-06-13T06:20:07.536Z,97.67
2017-06-13T06:21:07.771Z,97.76
2017-06-13T06:22:07.760Z,97.47
2017-06-13T06:23:07.471Z,97.38
2017-06-13T06:24:07.433Z,97.47
2017-06-13T06:25:07.710Z,96.99
2017-06-13T06:26:07.396Z,96.9
2017-06-13T06:27:07.381Z,96.61
2017-06-13T06:28:07.679Z,97.09
2017-06-13T06:29:07.349Z,95.75
2017-06-13T06:30:07.641Z,95.26
2017-06-13T06:31:07.319Z,95.75
2017-06-13T06:32:07.301Z,94.21
2017-06-13T06:33:07.285Z,93.82
2017-06-13T06:34:07.290Z,93.63
2017-06-13T06:35:07.569Z,93.82
2017-06-13T06:36:07.552Z,94.11
2017-06-13T06:37:07.527Z,94.01
2017-06-13T06:38:07.215Z,93.63
2017-06-13T06:39:07.212Z,93.05
2017-06-13T06:40:07.514Z,93.05
2017-06-13T06:41:07.476Z,93.34
2017-06-13T06:42:07.161Z,93.44
2017-06-13T06:43:07.455Z,93.63
2017-06-13T06:44:07.436Z,92.76
2017-06-13T06:45:07.119Z,92.61
2017-06-13T06:46:07.396Z,92.04
2017-06-13T06:47:07.400Z,92.09
2017-06-13T06:48:07.388Z,92.04
2017-06-13T06:49:07.372Z,91.85
2017-06-13T06:50:07.350Z,92.52
2017-06-13T06:51:07.018Z,92.23
2017-06-13T06:52:07.312Z,92.33
2017-06-13T06:53:07.318Z,92.61
2017-06-13T06:54:07.300Z,91.9
2017-06-13T06:55:07.271Z,90.98
2017-06-13T06:56:07.261Z,91.22
2017-06-13T06:57:07.242Z,90.89
2017-06-13T06:58:07.237Z,90.79
2017-06-13T06:59:07.212Z,90.17
2017-06-13T07:00:07.203Z,90.45
2017-06-13T07:01:07.190Z,91.13
2017-06-13T07:02:07.173Z,90.12
2017-06-13T07:03:07.151Z,90.59
2017-06-13T07:04:07.144Z,90.12
2017-06-13T07:05:07.131Z,90.12
2017-06-13T07:06:06.807Z,89.44
2017-06-13T07:07:07.104Z,89.49
2017-06-13T07:08:06.781Z,89.1
2017-06-13T07:09:07.070Z,88.81
2017-06-13T07:10:07.059Z,87.85
2017-06-13T07:11:06.730Z,88.53
2017-06-13T07:12:06.751Z,88.29
2017-06-13T07:13:06.756Z,88.96
2017-06-13T07:14:06.999Z,88.77
2017-06-13T07:15:07.090Z,89.06
2017-06-13T07:16:06.964Z,89.29
2017-06-13T07:17:06.960Z,89.29
2017-06-13T07:18:06.943Z,89.2
2017-06-13T07:19:06.680Z,88.81
2017-06-13T07:20:06.606Z,88.33
2017-06-13T07:21:06.901Z,88.96
2017-06-13T07:22:06.890Z,88.87
2017-06-13T07:23:06.869Z,88.87
2017-06-13T07:24:06.899Z,88.67
2017-06-13T07:25:06.909Z,88.33
2017-06-13T07:26:06.534Z,88.43
2017-06-13T07:27:06.810Z,87.76
2017-06-13T07:28:06.500Z,88.14
2017-06-13T07:29:06.490Z,87.18
2017-06-13T07:30:06.771Z,87.37
2017-06-13T07:31:06.763Z,86.74
2017-06-13T07:32:06.751Z,85.78
2017-06-13T07:33:06.736Z,85.1
2017-06-13T07:34:06.468Z,85.78
2017-06-13T07:35:06.400Z,85.3
2017-06-13T07:36:06.689Z,85.1
2017-06-13T07:37:06.376Z,84.76
2017-06-13T07:38:06.361Z,84.76
2017-06-13T07:39:06.670Z,84.18
2017-06-13T07:40:06.638Z,84.18
2017-06-13T07:41:06.618Z,84.09
2017-06-13T07:42:06.608Z,83.61
2017-06-13T07:43:06.604Z,84.18
2017-06-13T07:44:06.286Z,84.28
2017-06-13T07:45:06.605Z,84.81
2017-06-13T07:46:06.557Z,85
2017-06-13T07:47:06.543Z,85.3
2017-06-13T07:48:06.527Z,85.58
2017-06-13T07:49:06.213Z,85.78
2017-06-13T07:50:06.536Z,85.87
2017-06-13T07:51:06.184Z,85.87
2017-06-13T07:52:06.171Z,85.2
2017-06-13T07:53:06.159Z,84.18
2017-06-13T07:54:06.452Z,83.61
2017-06-13T07:55:06.445Z,83.51
2017-06-13T07:56:06.428Z,83.12
2017-06-13T07:57:06.409Z,82.35
2017-06-13T07:58:06.406Z,83.03
2017-06-13T07:59:06.402Z,83.12
2017-06-13T08:00:06.379Z,83.31
2017-06-13T08:01:06.052Z,83.7
2017-06-13T08:02:06.349Z,83.61
2017-06-13T08:03:06.328Z,82.49
2017-06-13T08:04:06.324Z,81.58
2017-06-13T08:05:06.302Z,81.24
2017-06-13T08:06:06.299Z,81.68
2017-06-13T08:07:06.445Z,82.45
2017-06-13T08:08:06.390Z,82.45
2017-06-13T08:09:06.260Z,82.74
2017-06-13T08:10:06.244Z,82.26
2017-06-13T08:11:06.236Z,82.83
2017-06-13T08:12:05.929Z,83.12
2017-06-13T08:13:05.892Z,82.83
2017-06-13T08:14:06.325Z,82.06
2017-06-13T08:15:06.181Z,82.21
2017-06-13T08:16:05.859Z,82.41
2017-06-13T08:17:05.889Z,83.18
2017-06-13T08:18:05.862Z,82.7
2017-06-13T08:19:05.809Z,82.5
2017-06-13T08:20:06.100Z,82.02
2017-06-13T08:21:06.103Z,81.93
2017-06-13T08:22:06.082Z,82.21
2017-06-13T08:23:06.068Z,81.83
2017-06-13T08:24:06.050Z,82.02
2017-06-13T08:25:06.041Z,82.7
2017-06-13T08:26:06.021Z,82.5
2017-06-13T08:27:05.712Z,82.7
2017-06-13T08:28:05.690Z,82.83
2017-06-13T08:29:06.083Z,82.93
2017-06-13T08:30:05.970Z,82.64
2017-06-13T08:31:06.024Z,81.96
2017-06-13T08:32:05.951Z,82.06
2017-06-13T08:33:05.934Z,81.48
2017-06-13T08:34:05.608Z,80.37
2017-06-13T08:35:05.950Z,79.44
2017-06-13T08:36:05.588Z,78.48
2017-06-13T08:37:05.879Z,78.09
2017-06-13T08:38:05.859Z,78.42
2017-06-13T08:39:05.548Z,78.23
2017-06-13T08:40:05.839Z,78.33
2017-06-13T08:41:05.836Z,78.52
2017-06-13T08:42:05.869Z,78.23
2017-06-13T08:43:05.489Z,78.13
2017-06-13T08:44:05.801Z,77.84
2017-06-13T08:45:05.774Z,78.03
2017-06-13T08:46:05.782Z,78.52
2017-06-13T08:47:05.748Z,78.29
2017-06-13T08:48:05.747Z,78.48
2017-06-13T08:49:05.728Z,79
2017-06-13T08:50:05.709Z,78.77
2017-06-13T08:51:05.700Z,78.77
2017-06-13T08:52:05.389Z,79.21
2017-06-13T08:53:05.376Z,78.83
2017-06-13T08:54:05.662Z,78.92
2017-06-13T08:55:05.651Z,79.89
2017-06-13T08:56:05.640Z,78.73
2017-06-13T08:57:05.633Z,78.31
2017-06-13T08:58:05.608Z,78.54
2017-06-13T08:59:05.297Z,78.02
2017-06-13T09:00:05.281Z,78.5
2017-06-13T09:01:05.273Z,78.5
2017-06-13T09:02:05.250Z,78.5
2017-06-13T09:03:05.243Z,78.5
2017-06-13T09:04:05.534Z,78.83
2017-06-13T09:05:05.550Z,79.46
2017-06-13T09:06:05.510Z,79.5
2017-06-13T09:07:05.489Z,79.5
2017-06-13T09:08:05.183Z,79.31
2017-06-13T09:09:05.469Z,79.17
2017-06-13T09:10:05.460Z,79.69
2017-06-13T09:11:05.131Z,79.66
2017-06-13T09:12:05.435Z,80.66
2017-06-13T09:13:05.121Z,80.04
2017-06-13T09:14:05.402Z,80.43
2017-06-13T09:15:05.404Z,80.81
2017-06-13T09:16:05.373Z,80.85
2017-06-13T09:17:05.066Z,80.23
2017-06-13T09:18:05.354Z,80.27
2017-06-13T09:19:05.342Z,80.56
2017-06-13T09:20:05.343Z,80.76
2017-06-13T09:21:05.312Z,79.93
2017-06-13T09:22:05.009Z,80.02
2017-06-13T09:23:04.983Z,79.16
2017-06-13T09:24:05.271Z,79.35
2017-06-13T09:25:05.266Z,79.25
2017-06-13T09:26:04.939Z,79.54
2017-06-13T09:27:05.230Z,78.48
2017-06-13T09:28:05.244Z,78.58
2017-06-13T09:29:04.904Z,78.09
2017-06-13T09:30:05.203Z,78.09
2017-06-13T09:31:05.185Z,78.15
2017-06-13T09:32:04.871Z,78.29
2017-06-13T09:33:04.866Z,78.29
2017-06-13T09:34:05.147Z,78.09
2017-06-13T09:35:05.184Z,78.09
2017-06-13T09:36:05.121Z,78.34
2017-06-13T09:37:05.194Z,78.19
2017-06-13T09:38:05.102Z,78.15
2017-06-13T09:39:05.155Z,78.29
2017-06-13T09:40:05.064Z,77.96
2017-06-13T09:41:05.073Z,78.73
2017-06-13T09:42:05.042Z,78.73
2017-06-13T09:43:05.074Z,78.63
2017-06-13T09:44:05.024Z,78.63
2017-06-13T09:45:05.028Z,78.73
2017-06-13T09:46:04.985Z,78.38
2017-06-13T09:47:05.012Z,78.19
2017-06-13T09:48:04.977Z,77.71
2017-06-13T09:49:04.971Z,77.33
2017-06-13T09:50:04.953Z,77.71
2017-06-13T09:51:04.936Z,77.03
2017-06-13T09:52:04.935Z,76.93
2017-06-13T09:53:04.602Z,76.01
2017-06-13T09:54:04.895Z,76.4
2017-06-13T09:55:04.878Z,75.14
2017-06-13T09:56:04.875Z,75.53
2017-06-13T09:57:04.853Z,75.34
2017-06-13T09:58:04.854Z,75.76
2017-06-13T09:59:04.832Z,75.85
2017-06-13T10:00:04.811Z,74.93
2017-06-13T10:01:04.803Z,74.54
2017-06-13T10:02:04.791Z,74.64
2017-06-13T10:03:04.804Z,74.77
2017-06-13T10:04:04.844Z,73.61
2017-06-13T10:05:04.762Z,73.42
2017-06-13T10:06:04.789Z,73.9
2017-06-13T10:07:04.736Z,74.19
2017-06-13T10:08:04.746Z,74.77
2017-06-13T10:09:04.721Z,74.68
2017-06-13T10:10:04.394Z,74.19
2017-06-13T10:11:04.384Z,74.19
2017-06-13T10:12:04.702Z,74.87
2017-06-13T10:13:04.671Z,74.16
2017-06-13T10:14:04.664Z,74.73
2017-06-13T10:15:04.647Z,75.02
2017-06-13T10:16:04.334Z,76.24
2017-06-13T10:17:04.625Z,76.72
2017-06-13T10:18:04.339Z,76.72
2017-06-13T10:19:04.613Z,77.3
2017-06-13T10:20:04.600Z,76.15
2017-06-13T10:21:04.575Z,76.15
2017-06-13T10:22:04.257Z,75.27
2017-06-13T10:23:04.253Z,75.85
2017-06-13T10:24:04.546Z,76.34
2017-06-13T10:25:04.593Z,76.5
2017-06-13T10:26:04.260Z,76.59
2017-06-13T10:27:04.505Z,76.68
2017-06-13T10:28:04.494Z,76.01
2017-06-13T10:29:04.478Z,76.05
2017-06-13T10:30:04.477Z,75.12
2017-06-13T10:31:04.469Z,74.44
2017-06-13T10:32:04.447Z,74.1
2017-06-13T10:33:04.439Z,74.1
2017-06-13T10:34:04.492Z,73.22
2017-06-13T10:35:04.435Z,72.74
2017-06-13T10:36:04.512Z,72.06
2017-06-13T10:37:04.397Z,72.45
2017-06-13T10:38:04.385Z,73.09
2017-06-13T10:39:04.394Z,73.63
2017-06-13T10:40:04.421Z,74.21
2017-06-13T10:41:04.366Z,74.69
2017-06-13T10:42:04.337Z,74.99
2017-06-13T10:43:04.346Z,75.18
2017-06-13T10:44:04.315Z,75.18
2017-06-13T10:45:04.313Z,74.89
2017-06-13T10:46:04.289Z,76.15
2017-06-13T10:47:03.976Z,75.85
2017-06-13T10:48:04.261Z,75.76
2017-06-13T10:49:04.250Z,76.15
2017-06-13T10:50:04.249Z,76.92
2017-06-13T10:51:03.925Z,77.26
2017-06-13T10:52:04.215Z,77.17
2017-06-13T10:53:04.245Z,76.98
2017-06-13T10:54:03.892Z,76.72
2017-06-13T10:55:04.259Z,76.72
2017-06-13T10:56:04.168Z,77.11
2017-06-13T10:57:03.846Z,76.72
2017-06-13T10:58:04.138Z,76.82
2017-06-13T10:59:04.141Z,77.5
2017-06-13T11:00:04.134Z,77.11
2017-06-13T11:01:04.255Z,76.63
2017-06-13T11:02:04.099Z,75.02
2017-06-13T11:03:04.093Z,74.83
2017-06-13T11:04:04.073Z,74.68
2017-06-13T11:05:03.756Z,74.77
2017-06-13T11:06:04.069Z,73.74
2017-06-13T11:07:04.045Z,74.17
2017-06-13T11:08:04.024Z,73.78
2017-06-13T11:09:04.023Z,73.1
2017-06-13T11:10:04.012Z,73.39
2017-06-13T11:11:03.690Z,73.2
2017-06-13T11:12:03.978Z,73.94
2017-06-13T11:13:03.973Z,74.77
2017-06-13T11:14:03.953Z,74.48
2017-06-13T11:15:03.647Z,75.22
2017-06-13T11:16:03.628Z,75.7
2017-06-13T11:17:03.924Z,74.79
2017-06-13T11:18:03.919Z,74.51
2017-06-13T11:19:03.911Z,74.89
2017-06-13T11:20:03.885Z,75.62
2017-06-13T11:21:03.566Z,75.14
2017-06-13T11:22:03.864Z,75.62
2017-06-13T11:23:03.854Z,75.09
2017-06-13T11:24:03.831Z,75.53
2017-06-13T11:25:03.521Z,75.67
2017-06-13T11:26:03.817Z,75.09
2017-06-13T11:27:03.807Z,74.89
2017-06-13T11:28:03.483Z,75.18
2017-06-13T11:29:03.776Z,75.47
2017-06-13T11:30:03.458Z,75.85
2017-06-13T11:31:03.764Z,76.28
2017-06-13T11:32:03.749Z,74.93
2017-06-13T11:33:03.730Z,75.31
2017-06-13T11:34:03.724Z,75.7
2017-06-13T11:35:03.407Z,75.02
2017-06-13T11:36:03.696Z,74.64
2017-06-13T11:37:03.675Z,74.25
2017-06-13T11:38:03.675Z,75.31
2017-06-13T11:39:03.663Z,75.02
2017-06-13T11:40:03.639Z,74.35
2017-06-13T11:41:03.647Z,74.64
2017-06-13T11:42:03.310Z,74.64
2017-06-13T11:43:03.599Z,74.73
2017-06-13T11:44:03.294Z,74.64
2017-06-13T11:45:03.278Z,74.83
2017-06-13T11:46:03.581Z,75.31
2017-06-13T11:47:03.564Z,74.83
2017-06-13T11:48:03.565Z,74.16
2017-06-13T11:49:03.553Z,74.83
2017-06-13T11:50:03.222Z,74.64
2017-06-13T11:51:03.513Z,74.54
2017-06-13T11:52:03.519Z,74.73
2017-06-13T11:53:03.504Z,74.64
2017-06-13T11:54:03.180Z,74.44
2017-06-13T11:55:03.464Z,74.93
2017-06-13T11:56:03.453Z,75.06
2017-06-13T11:57:03.448Z,75.12
2017-06-13T11:58:03.127Z,74.93
2017-06-13T11:59:03.120Z,76.37
2017-06-13T12:00:03.417Z,76.86
2017-06-13T12:01:03.398Z,75.99
2017-06-13T12:02:03.384Z,75.79
2017-06-13T12:03:03.114Z,75.31
2017-06-13T12:04:03.067Z,75.99
2017-06-13T12:05:03.354Z,77.34
2017-06-13T12:06:03.339Z,77.34
2017-06-13T12:07:03.323Z,76.76
2017-06-13T12:08:03.314Z,77.48
2017-06-13T12:09:03.366Z,76.32
2017-06-13T12:10:02.986Z,74.81
2017-06-13T12:11:03.288Z,74
2017-06-13T12:12:02.963Z,74.19
2017-06-13T12:13:02.954Z,73.65
2017-06-13T12:14:03.265Z,73.36
2017-06-13T12:15:03.233Z,73.46
2017-06-13T12:16:03.236Z,74.04
2017-06-13T12:17:03.236Z,73.49
2017-06-13T12:18:03.217Z,73.68
2017-06-13T12:19:03.199Z,72.62
2017-06-13T12:20:02.870Z,72.62
2017-06-13T12:21:03.167Z,72.91
2017-06-13T12:22:03.158Z,73.65
2017-06-13T12:23:02.846Z,73.74
2017-06-13T12:24:03.143Z,73.55
2017-06-13T12:25:03.127Z,73.46
2017-06-13T12:26:03.114Z,73.46
2017-06-13T12:27:03.098Z,73.36
2017-06-13T12:28:03.087Z,73.1
2017-06-13T12:29:03.078Z,72.14
2017-06-13T12:30:02.770Z,72.1
2017-06-13T12:31:02.745Z,72.2
2017-06-13T12:32:03.046Z,71.91
2017-06-13T12:33:02.732Z,72.49
2017-06-13T12:34:03.017Z,72.2
2017-06-13T12:35:03.017Z,72.64
2017-06-13T12:36:02.701Z,72.64
2017-06-13T12:37:02.780Z,72.94
2017-06-13T12:38:02.737Z,72.74
2017-06-13T12:39:02.677Z,72.74
2017-06-13T12:40:02.957Z,72.74
2017-06-13T12:41:02.940Z,73.13
2017-06-13T12:42:02.950Z,73.52
2017-06-13T12:43:02.626Z,73.71
2017-06-13T12:44:02.914Z,73.42
2017-06-13T12:45:02.893Z,73.8
2017-06-13T12:46:02.684Z,74.06
2017-06-13T12:47:02.577Z,74.44
2017-06-13T12:48:02.654Z,74.73
2017-06-13T12:49:02.556Z,74.64
2017-06-13T12:50:02.943Z,75.02
2017-06-13T12:51:02.914Z,75.02
2017-06-13T12:52:02.527Z,75.12
2017-06-13T12:53:02.495Z,75.41
2017-06-13T12:54:02.795Z,75.22
2017-06-13T12:55:02.480Z,75.41